Time;durP1;ratioP1;P1;durP2;ratioP2;P2;SDS_P1;SDS_P2;PMS_P1;PMS_P2;Temp;Humidity;BMP_temperature;BMP_pressure;BME280_temperature;BME280_humidity;BME280_pressure;Samples;Min_cycle;Max_cycle;Signal;HPM_P1;HPM_P2
2023/11/13 00:00:04;;;;;;;25.75;22.80;;;;;;;;;;340174;29;852;-84
2023/11/13 00:00:15;;;;;;;26.52;22.67;;;;;;;;;;338806;29;1303;-83
2023/11/13 00:00:25;;;;;;;25.50;21.33;;;;;;;;;;338759;29;871;-84
2023/11/13 00:00:37;;;;;;;25.10;20.80;;;;;;;;;;341084;29;1283;-84
2023/11/13 00:00:47;;;;;;;24.90;21.23;;;;;;;;;;341031;29;1278;-86
2023/11/13 00:00:58;;;;;;;24.60;21.60;;;;;;;;;;339962;29;1432;-84
2023/11/13 00:01:09;;;;;;;25.13;21.80;;;;;;;;;;341179;29;871;-83
2023/11/13 00:01:19;;;;;;;24.13;21.33;;;;;;;;;;340138;29;801;-83
2023/11/13 00:01:29;;;;;;;24.13;21.10;;;;;;;;;;339926;29;1230;-85
2023/11/13 00:01:40;;;;;;;23.77;21.10;;;;;;;;;;340215;29;813;-83
2023/11/13 00:01:50;;;;;;;23.92;21.27;;;;;;;;;;340107;29;871;-85
2023/11/13 00:02:02;;;;;;;23.87;21.20;;;;;;;;;;341521;29;809;-85
2023/11/13 00:02:13;;;;;;;24.20;21.60;;;;;;;;;;340101;29;926;-84
2023/11/13 00:02:24;;;;;;;25.45;21.60;;;;;;;;;;341368;29;883;-85
2023/11/13 00:02:34;;;;;;;24.67;21.38;;;;;;;;;;342770;28;899;-85
2023/11/13 00:02:45;;;;;;;27.00;21.10;;;;;;;;;;344013;28;863;-85
2023/11/13 00:02:56;;;;;;;25.88;21.08;;;;;;;;;;342721;28;1289;-84
2023/11/13 00:03:07;;;;;;;26.75;21.60;;;;;;;;;;342677;28;1250;-85
2023/11/13 00:03:18;;;;;;;26.40;22.08;;;;;;;;;;340191;29;817;-85
2023/11/13 00:03:28;;;;;;;26.25;22.02;;;;;;;;;;341417;29;824;-82
2023/11/13 00:03:39;;;;;;;25.60;22.17;;;;;;;;;;341312;29;1166;-84
2023/11/13 00:03:49;;;;;;;24.55;21.95;;;;;;;;;;338603;29;1290;-85
2023/11/13 00:04:00;;;;;;;25.63;21.85;;;;;;;;;;338748;29;1368;-84
2023/11/13 00:04:10;;;;;;;26.40;21.30;;;;;;;;;;338851;29;1375;-84
2023/11/13 00:04:21;;;;;;;27.45;21.50;;;;;;;;;;338803;29;837;-85
2023/11/13 00:04:31;;;;;;;25.50;21.10;;;;;;;;;;338348;29;793;-85
2023/11/13 00:04:42;;;;;;;24.23;21.05;;;;;;;;;;339967;29;904;-84
2023/11/13 00:04:53;;;;;;;25.15;21.55;;;;;;;;;;338776;29;1460;-83
2023/11/13 00:05:04;;;;;;;25.17;21.90;;;;;;;;;;340031;29;1195;-85
2023/11/13 00:05:15;;;;;;;25.38;21.92;;;;;;;;;;340235;29;915;-83
2023/11/13 00:05:26;;;;;;;23.80;21.25;;;;;;;;;;341284;28;1914;-84
2023/11/13 00:05:36;;;;;;;23.87;21.33;;;;;;;;;;338740;29;1194;-85
2023/11/13 00:05:47;;;;;;;24.20;21.55;;;;;;;;;;341314;29;793;-85
2023/11/13 00:05:58;;;;;;;24.70;22.00;;;;;;;;;;341527;29;824;-85
2023/11/13 00:06:08;;;;;;;24.87;21.83;;;;;;;;;;341378;28;1177;-82
2023/11/13 00:06:19;;;;;;;25.23;21.98;;;;;;;;;;340043;29;1356;-84
2023/11/13 00:06:29;;;;;;;25.40;21.55;;;;;;;;;;339971;29;1287;-83
2023/11/13 00:06:40;;;;;;;25.33;21.50;;;;;;;;;;341328;29;1190;-84
2023/11/13 00:06:50;;;;;;;24.70;21.67;;;;;;;;;;339860;29;1419;-83
2023/11/13 00:07:01;;;;;;;24.73;21.90;;;;;;;;;;341377;29;1280;-84
2023/11/13 00:07:13;;;;;;;23.95;21.40;;;;;;;;;;338925;29;836;-85
2023/11/13 00:07:23;;;;;;;24.50;21.00;;;;;;;;;;341261;29;1259;-84
2023/11/13 00:07:34;;;;;;;24.80;20.60;;;;;;;;;;341282;29;1304;-85
2023/11/13 00:07:44;;;;;;;25.83;21.13;;;;;;;;;;341158;29;1343;-85
2023/11/13 00:07:56;;;;;;;24.60;21.20;;;;;;;;;;338845;29;1231;-82
2023/11/13 00:08:06;;;;;;;24.30;21.20;;;;;;;;;;338745;29;1428;-83
2023/11/13 00:08:17;;;;;;;24.17;20.95;;;;;;;;;;340178;29;805;-83
2023/11/13 00:08:27;;;;;;;24.63;20.73;;;;;;;;;;338663;29;1178;-82
2023/11/13 00:08:38;;;;;;;24.38;21.17;;;;;;;;;;340023;29;1348;-83
2023/11/13 00:08:48;;;;;;;23.60;20.87;;;;;;;;;;341133;29;1169;-83
2023/11/13 00:08:59;;;;;;;24.02;21.42;;;;;;;;;;341463;29;1251;-83
2023/11/13 00:09:09;;;;;;;24.03;21.23;;;;;;;;;;338850;29;939;-83
2023/11/13 00:09:20;;;;;;;25.92;21.63;;;;;;;;;;338838;29;979;-84
2023/11/13 00:09:30;;;;;;;26.50;21.37;;;;;;;;;;340000;29;884;-84
2023/11/13 00:09:41;;;;;;;26.20;21.20;;;;;;;;;;341467;29;840;-83
2023/11/13 00:09:51;;;;;;;24.57;20.70;;;;;;;;;;342526;28;1195;-85
2023/11/13 00:10:02;;;;;;;22.67;20.23;;;;;;;;;;340029;29;1349;-83
2023/11/13 00:10:13;;;;;;;23.58;20.27;;;;;;;;;;338883;29;1418;-82
2023/11/13 00:10:23;;;;;;;24.23;20.20;;;;;;;;;;341319;29;1273;-83
2023/11/13 00:10:34;;;;;;;26.10;20.77;;;;;;;;;;341335;29;948;-84
2023/11/13 00:10:44;;;;;;;25.20;21.15;;;;;;;;;;338662;29;1430;-84
2023/11/13 00:10:55;;;;;;;25.30;21.47;;;;;;;;;;338784;29;1205;-85
2023/11/13 00:11:06;;;;;;;23.90;21.30;;;;;;;;;;340108;29;948;-83
2023/11/13 00:11:16;;;;;;;23.48;21.02;;;;;;;;;;342552;28;1217;-83
2023/11/13 00:11:27;;;;;;;23.37;20.97;;;;;;;;;;340043;29;1182;-83
2023/11/13 00:11:37;;;;;;;23.20;20.75;;;;;;;;;;338684;29;1214;-84
2023/11/13 00:11:48;;;;;;;23.33;20.83;;;;;;;;;;341129;29;789;-84
2023/11/13 00:11:59;;;;;;;23.25;20.75;;;;;;;;;;341271;29;738;-83
2023/11/13 00:12:10;;;;;;;23.43;20.97;;;;;;;;;;341325;29;1329;-84
2023/11/13 00:12:21;;;;;;;23.30;20.90;;;;;;;;;;340104;29;1031;-84
2023/11/13 00:12:31;;;;;;;23.65;21.15;;;;;;;;;;340010;29;1284;-85
2023/11/13 00:12:42;;;;;;;23.23;20.60;;;;;;;;;;340119;29;1385;-82
2023/11/13 00:12:55;;;;;;;23.05;20.52;;;;;;;;;;342515;28;1190;-83
2023/11/13 00:13:06;;;;;;;23.82;21.22;;;;;;;;;;341280;29;1320;-85
2023/11/13 00:13:17;;;;;;;24.83;21.90;;;;;;;;;;342683;28;1301;-85
2023/11/13 00:13:28;;;;;;;23.85;21.27;;;;;;;;;;341485;29;911;-84
2023/11/13 00:13:38;;;;;;;23.17;20.58;;;;;;;;;;339964;29;1265;-83
2023/11/13 00:13:49;;;;;;;22.42;20.02;;;;;;;;;;341214;29;1401;-84
2023/11/13 00:14:00;;;;;;;22.35;19.95;;;;;;;;;;344069;28;1268;-83
2023/11/13 00:14:10;;;;;;;22.90;19.97;;;;;;;;;;338812;29;1265;-83
2023/11/13 00:14:21;;;;;;;24.23;20.17;;;;;;;;;;340009;29;1355;-85
2023/11/13 00:14:32;;;;;;;24.90;20.65;;;;;;;;;;340038;29;1391;-84
2023/11/13 00:14:42;;;;;;;23.38;20.60;;;;;;;;;;340079;29;861;-83
2023/11/13 00:14:53;;;;;;;23.53;20.97;;;;;;;;;;339968;29;801;-83
2023/11/13 00:15:05;;;;;;;23.65;20.38;;;;;;;;;;341366;29;1241;-83
2023/11/13 00:15:16;;;;;;;24.10;20.10;;;;;;;;;;342596;28;1242;-85
2023/11/13 00:15:26;;;;;;;23.03;19.67;;;;;;;;;;340078;29;1258;-83
2023/11/13 00:15:37;;;;;;;23.27;19.75;;;;;;;;;;338759;29;817;-85
2023/11/13 00:15:47;;;;;;;23.60;20.13;;;;;;;;;;341252;29;805;-85
2023/11/13 00:15:58;;;;;;;23.80;20.13;;;;;;;;;;340028;29;1215;-85
2023/11/13 00:16:09;;;;;;;23.73;20.83;;;;;;;;;;340060;29;1348;-83
2023/11/13 00:16:19;;;;;;;22.60;20.00;;;;;;;;;;340038;29;1625;-85
2023/11/13 00:16:29;;;;;;;22.47;19.43;;;;;;;;;;340089;29;1284;-83
2023/11/13 00:16:40;;;;;;;22.05;18.48;;;;;;;;;;340163;29;939;-83
2023/11/13 00:16:50;;;;;;;22.63;18.63;;;;;;;;;;339969;29;840;-85
2023/11/13 00:17:01;;;;;;;23.15;19.02;;;;;;;;;;339935;29;1202;-84
2023/11/13 00:17:11;;;;;;;22.33;19.40;;;;;;;;;;340105;29;1289;-85
2023/11/13 00:17:22;;;;;;;22.42;19.98;;;;;;;;;;342712;28;1284;-84
2023/11/13 00:17:32;;;;;;;22.60;20.27;;;;;;;;;;342686;28;1444;-85
2023/11/13 00:17:43;;;;;;;22.30;19.93;;;;;;;;;;341468;29;897;-84
2023/11/13 00:17:54;;;;;;;21.67;19.38;;;;;;;;;;341134;29;1210;-83
2023/11/13 00:18:04;;;;;;;21.57;19.23;;;;;;;;;;341400;29;1488;-85
2023/11/13 00:18:15;;;;;;;23.13;19.33;;;;;;;;;;341323;29;915;-84
2023/11/13 00:18:25;;;;;;;24.80;19.73;;;;;;;;;;342738;28;1186;-85
2023/11/13 00:18:37;;;;;;;23.97;19.53;;;;;;;;;;341321;29;1502;-84
2023/11/13 00:18:47;;;;;;;21.95;19.50;;;;;;;;;;337484;29;1358;-85
2023/11/13 00:18:58;;;;;;;21.08;18.88;;;;;;;;;;339907;29;1396;-83
2023/11/13 00:19:08;;;;;;;21.30;18.98;;;;;;;;;;338837;29;820;-84
2023/11/13 00:19:18;;;;;;;22.43;19.17;;;;;;;;;;336877;29;1347;-84
2023/11/13 00:19:30;;;;;;;23.25;19.45;;;;;;;;;;340132;29;1250;-85
2023/11/13 00:19:43;;;;;;;22.60;19.40;;;;;;;;;;340025;29;1880;-82
2023/11/13 00:19:53;;;;;;;22.90;19.95;;;;;;;;;;339775;29;1290;-83
2023/11/13 00:20:05;;;;;;;23.03;19.63;;;;;;;;;;340022;29;1178;-84
2023/11/13 00:20:16;;;;;;;23.42;19.55;;;;;;;;;;337399;29;1289;-85
2023/11/13 00:20:26;;;;;;;21.47;18.67;;;;;;;;;;341444;29;1507;-84
2023/11/13 00:20:37;;;;;;;21.88;18.85;;;;;;;;;;342764;28;879;-83
2023/11/13 00:20:48;;;;;;;22.23;18.95;;;;;;;;;;341385;29;1300;-83
2023/11/13 00:20:59;;;;;;;22.20;18.83;;;;;;;;;;338853;29;1306;-85
2023/11/13 00:21:09;;;;;;;21.25;18.83;;;;;;;;;;338771;29;828;-84
2023/11/13 00:21:21;;;;;;;20.98;18.77;;;;;;;;;;340001;29;1340;-84
2023/11/13 00:21:31;;;;;;;22.23;19.33;;;;;;;;;;337572;29;861;-84
2023/11/13 00:21:42;;;;;;;23.45;18.85;;;;;;;;;;337490;29;1458;-83
2023/11/13 00:21:53;;;;;;;23.20;18.73;;;;;;;;;;337229;29;1309;-85
2023/11/13 00:22:04;;;;;;;22.70;18.47;;;;;;;;;;338759;29;1442;-84
2023/11/13 00:22:14;;;;;;;21.48;18.27;;;;;;;;;;338718;29;1267;-83
2023/11/13 00:22:25;;;;;;;21.77;18.40;;;;;;;;;;340070;29;1178;-85
2023/11/13 00:22:36;;;;;;;21.57;17.90;;;;;;;;;;340110;29;881;-83
2023/11/13 00:22:46;;;;;;;21.83;17.88;;;;;;;;;;341384;29;1427;-83
2023/11/13 00:22:57;;;;;;;21.77;17.97;;;;;;;;;;339861;29;888;-84
2023/11/13 00:23:08;;;;;;;20.67;18.08;;;;;;;;;;341171;29;1340;-84
2023/11/13 00:23:18;;;;;;;21.25;18.58;;;;;;;;;;338768;29;821;-85
2023/11/13 00:23:29;;;;;;;22.00;18.90;;;;;;;;;;337587;29;828;-85
2023/11/13 00:23:40;;;;;;;21.73;18.40;;;;;;;;;;338697;29;1246;-82
2023/11/13 00:23:50;;;;;;;21.17;18.25;;;;;;;;;;339738;29;1414;-84
2023/11/13 00:24:01;;;;;;;20.08;17.77;;;;;;;;;;340104;29;824;-84
2023/11/13 00:24:12;;;;;;;20.97;18.70;;;;;;;;;;338658;29;1379;-82
2023/11/13 00:24:22;;;;;;;21.98;18.70;;;;;;;;;;340240;29;864;-82
2023/11/13 00:24:33;;;;;;;22.48;18.70;;;;;;;;;;339973;29;1283;-84
2023/11/13 00:24:43;;;;;;;21.60;18.33;;;;;;;;;;340074;29;1198;-85
2023/11/13 00:24:55;;;;;;;20.77;18.52;;;;;;;;;;339924;29;908;-84
2023/11/13 00:25:07;;;;;;;21.83;18.80;;;;;;;;;;339990;29;1276;-85
2023/11/13 00:25:17;;;;;;;22.17;18.75;;;;;;;;;;338721;29;1393;-83
2023/11/13 00:25:28;;;;;;;20.60;18.13;;;;;;;;;;341362;29;1992;-85
2023/11/13 00:25:38;;;;;;;20.40;17.85;;;;;;;;;;340009;29;1131;-85
2023/11/13 00:25:49;;;;;;;20.73;17.93;;;;;;;;;;340057;29;1295;-85
2023/11/13 00:25:59;;;;;;;21.45;18.45;;;;;;;;;;339749;29;1375;-85
2023/11/13 00:26:11;;;;;;;21.33;18.80;;;;;;;;;;338743;29;1377;-82
2023/11/13 00:26:21;;;;;;;21.40;18.55;;;;;;;;;;338690;29;1418;-85
2023/11/13 00:26:32;;;;;;;20.80;18.50;;;;;;;;;;339962;29;1453;-84
2023/11/13 00:26:42;;;;;;;21.45;18.52;;;;;;;;;;339644;29;1158;-84
2023/11/13 00:26:53;;;;;;;21.63;18.83;;;;;;;;;;337208;29;1183;-85
2023/11/13 00:27:03;;;;;;;22.65;19.17;;;;;;;;;;341376;29;888;-85
2023/11/13 00:27:14;;;;;;;21.90;19.03;;;;;;;;;;340124;29;896;-85
2023/11/13 00:27:24;;;;;;;22.17;19.15;;;;;;;;;;341453;29;1400;-84
2023/11/13 00:27:35;;;;;;;21.13;18.83;;;;;;;;;;339972;29;1252;-85
2023/11/13 00:27:45;;;;;;;21.40;19.10;;;;;;;;;;338796;29;1333;-83
2023/11/13 00:27:56;;;;;;;21.53;19.23;;;;;;;;;;339872;29;860;-85
2023/11/13 00:28:06;;;;;;;21.30;19.02;;;;;;;;;;340034;29;1049;-83
2023/11/13 00:28:17;;;;;;;20.77;18.63;;;;;;;;;;340146;29;785;-84
2023/11/13 00:28:27;;;;;;;20.70;18.50;;;;;;;;;;338526;29;1292;-84
2023/11/13 00:28:38;;;;;;;21.60;18.07;;;;;;;;;;340039;29;880;-84
2023/11/13 00:28:48;;;;;;;22.90;18.60;;;;;;;;;;338854;29;1430;-82
2023/11/13 00:29:01;;;;;;;22.40;17.98;;;;;;;;;;338525;29;861;-83
2023/11/13 00:29:11;;;;;;;20.45;18.15;;;;;;;;;;339986;29;1484;-83
2023/11/13 00:29:22;;;;;;;20.17;18.08;;;;;;;;;;341388;29;852;-82
2023/11/13 00:29:32;;;;;;;22.67;18.60;;;;;;;;;;340012;29;1226;-85
2023/11/13 00:29:43;;;;;;;22.85;18.52;;;;;;;;;;337521;29;915;-82
2023/11/13 00:29:54;;;;;;;22.97;18.20;;;;;;;;;;339839;29;1410;-85
2023/11/13 00:30:06;;;;;;;21.52;17.77;;;;;;;;;;341177;29;849;-83
2023/11/13 00:30:17;;;;;;;24.40;18.17;;;;;;;;;;340061;29;1253;-84
2023/11/13 00:30:27;;;;;;;24.90;18.80;;;;;;;;;;340103;29;1288;-83
2023/11/13 00:30:38;;;;;;;24.45;19.13;;;;;;;;;;338709;29;1323;-83
2023/11/13 00:30:48;;;;;;;25.58;19.02;;;;;;;;;;337425;29;1210;-85
2023/11/13 00:30:59;;;;;;;25.90;18.70;;;;;;;;;;338547;29;927;-83
2023/11/13 00:31:09;;;;;;;21.58;17.73;;;;;;;;;;337297;29;1372;-82
2023/11/13 00:31:20;;;;;;;22.77;17.50;;;;;;;;;;337449;29;1148;-83
2023/11/13 00:31:31;;;;;;;21.98;17.58;;;;;;;;;;338698;29;1298;-83
2023/11/13 00:31:42;;;;;;;22.30;18.02;;;;;;;;;;338798;29;1493;-85
2023/11/13 00:31:52;;;;;;;21.60;18.67;;;;;;;;;;340173;29;575;-85
2023/11/13 00:32:03;;;;;;;21.87;18.63;;;;;;;;;;339773;29;1280;-82
2023/11/13 00:32:13;;;;;;;21.02;18.48;;;;;;;;;;338679;29;1353;-83
2023/11/13 00:32:24;;;;;;;20.35;18.10;;;;;;;;;;338827;29;1194;-83
2023/11/13 00:32:35;;;;;;;20.73;18.30;;;;;;;;;;337469;29;844;-85
2023/11/13 00:32:46;;;;;;;21.17;18.60;;;;;;;;;;337469;29;961;-82
2023/11/13 00:32:56;;;;;;;21.73;18.25;;;;;;;;;;337329;29;864;-85
2023/11/13 00:33:08;;;;;;;22.47;18.13;;;;;;;;;;337396;29;953;-83
2023/11/13 00:33:18;;;;;;;21.80;18.13;;;;;;;;;;337520;29;853;-82
2023/11/13 00:33:49;;;;;;;21.63;18.23;;;;;;;;;;340172;29;809;-84
2023/11/13 00:33:59;;;;;;;21.60;18.95;;;;;;;;;;339835;29;876;-83
2023/11/13 00:34:10;;;;;;;22.35;18.95;;;;;;;;;;340961;28;864;-85
2023/11/13 00:34:21;;;;;;;22.33;19.10;;;;;;;;;;340111;29;1384;-84
2023/11/13 00:34:32;;;;;;;20.75;18.52;;;;;;;;;;340133;29;932;-83
2023/11/13 00:34:42;;;;;;;21.90;18.77;;;;;;;;;;340062;29;1334;-82
2023/11/13 00:34:53;;;;;;;21.40;18.13;;;;;;;;;;338780;29;1183;-84
2023/11/13 00:35:04;;;;;;;21.70;18.20;;;;;;;;;;339741;29;801;-84
2023/11/13 00:35:14;;;;;;;19.92;17.80;;;;;;;;;;340132;29;900;-85
2023/11/13 00:35:25;;;;;;;20.83;18.63;;;;;;;;;;338791;29;1221;-84
2023/11/13 00:35:35;;;;;;;20.80;18.60;;;;;;;;;;338638;29;1357;-85
2023/11/13 00:35:46;;;;;;;21.33;19.03;;;;;;;;;;340037;29;1463;-84
2023/11/13 00:35:56;;;;;;;20.75;18.52;;;;;;;;;;339890;29;1245;-85
2023/11/13 00:36:07;;;;;;;21.27;18.50;;;;;;;;;;341163;29;1178;-85
2023/11/13 00:36:18;;;;;;;21.05;18.00;;;;;;;;;;340133;29;1046;-85
2023/11/13 00:36:28;;;;;;;22.13;18.45;;;;;;;;;;337588;29;983;-84
2023/11/13 00:36:39;;;;;;;21.58;18.67;;;;;;;;;;341321;29;861;-83
2023/11/13 00:36:50;;;;;;;21.38;19.08;;;;;;;;;;340134;29;927;-85
2023/11/13 00:37:02;;;;;;;21.10;18.83;;;;;;;;;;341153;29;892;-84
2023/11/13 00:37:14;;;;;;;23.05;19.27;;;;;;;;;;338783;29;916;-82
2023/11/13 00:37:24;;;;;;;23.73;19.42;;;;;;;;;;341512;29;943;-84
2023/11/13 00:37:35;;;;;;;22.92;18.40;;;;;;;;;;340088;29;904;-85
2023/11/13 00:37:45;;;;;;;20.63;17.90;;;;;;;;;;337476;29;1195;-85
2023/11/13 00:37:57;;;;;;;21.17;17.63;;;;;;;;;;337246;29;1376;-84
2023/11/13 00:38:07;;;;;;;21.05;18.10;;;;;;;;;;339949;29;908;-84
2023/11/13 00:38:18;;;;;;;20.90;18.10;;;;;;;;;;341370;28;1401;-85
2023/11/13 00:38:28;;;;;;;20.60;18.30;;;;;;;;;;338747;29;1198;-83
2023/11/13 00:38:39;;;;;;;20.63;18.10;;;;;;;;;;339935;29;1242;-82
2023/11/13 00:38:49;;;;;;;21.05;17.83;;;;;;;;;;340098;29;1537;-82
2023/11/13 00:39:01;;;;;;;22.47;17.53;;;;;;;;;;339902;29;820;-83
2023/11/13 00:39:11;;;;;;;21.45;17.45;;;;;;;;;;337309;29;1313;-83
2023/11/13 00:39:22;;;;;;;20.43;17.73;;;;;;;;;;337477;29;1493;-85
2023/11/13 00:39:33;;;;;;;21.33;18.02;;;;;;;;;;339990;29;1191;-85
2023/11/13 00:39:43;;;;;;;22.20;18.70;;;;;;;;;;341517;29;805;-82
2023/11/13 00:39:54;;;;;;;22.13;18.87;;;;;;;;;;341316;29;1367;-83
2023/11/13 00:40:05;;;;;;;21.02;18.73;;;;;;;;;;338343;29;1234;-82
2023/11/13 00:40:16;;;;;;;20.65;18.05;;;;;;;;;;338576;29;1451;-83
2023/11/13 00:40:27;;;;;;;20.48;17.88;;;;;;;;;;340220;29;809;-82
2023/11/13 00:40:38;;;;;;;20.10;17.85;;;;;;;;;;338801;29;970;-82
2023/11/13 00:40:48;;;;;;;19.98;17.85;;;;;;;;;;338875;29;837;-82
2023/11/13 00:40:59;;;;;;;20.10;18.00;;;;;;;;;;337160;29;1207;-83
2023/11/13 00:41:13;;;;;;;20.20;18.00;;;;;;;;;;338553;29;1194;-83
2023/11/13 00:41:23;;;;;;;21.63;18.10;;;;;;;;;;340062;29;864;-85
2023/11/13 00:41:34;;;;;;;20.75;17.50;;;;;;;;;;338488;29;810;-82
2023/11/13 00:41:45;;;;;;;20.40;17.80;;;;;;;;;;337460;29;1419;-82
2023/11/13 00:41:55;;;;;;;20.13;17.98;;;;;;;;;;338743;29;1190;-82
2023/11/13 00:42:06;;;;;;;20.77;18.43;;;;;;;;;;338340;29;1234;-84
2023/11/13 00:42:16;;;;;;;20.60;18.30;;;;;;;;;;338838;29;817;-82
2023/11/13 00:42:27;;;;;;;20.80;18.43;;;;;;;;;;340055;29;1335;-83
2023/11/13 00:42:37;;;;;;;20.23;17.95;;;;;;;;;;339958;29;1218;-83
2023/11/13 00:42:48;;;;;;;20.03;17.43;;;;;;;;;;340018;29;1210;-82
2023/11/13 00:42:58;;;;;;;19.50;17.30;;;;;;;;;;338618;29;872;-84
2023/11/13 00:43:09;;;;;;;19.77;17.37;;;;;;;;;;337260;29;1223;-82
2023/11/13 00:43:19;;;;;;;20.75;17.48;;;;;;;;;;339993;29;1313;-83
2023/11/13 00:43:30;;;;;;;20.73;17.10;;;;;;;;;;342841;28;839;-85
2023/11/13 00:43:41;;;;;;;20.45;17.52;;;;;;;;;;337434;29;1577;-83
2023/11/13 00:43:52;;;;;;;19.92;17.83;;;;;;;;;;340009;29;948;-84
2023/11/13 00:44:02;;;;;;;20.40;18.30;;;;;;;;;;341011;29;1352;-84
2023/11/13 00:44:13;;;;;;;20.38;18.23;;;;;;;;;;341419;29;829;-85
2023/11/13 00:44:24;;;;;;;20.75;18.13;;;;;;;;;;338816;29;896;-82
2023/11/13 00:44:35;;;;;;;20.83;17.85;;;;;;;;;;338803;29;920;-85
2023/11/13 00:44:45;;;;;;;19.90;17.43;;;;;;;;;;338895;29;824;-82
2023/11/13 00:44:56;;;;;;;19.95;17.45;;;;;;;;;;337574;29;936;-85
2023/11/13 00:45:07;;;;;;;19.40;17.30;;;;;;;;;;337120;29;1411;-82
2023/11/13 00:45:18;;;;;;;19.95;17.23;;;;;;;;;;341235;29;912;-84
2023/11/13 00:45:28;;;;;;;20.27;17.02;;;;;;;;;;341425;29;1914;-82
2023/11/13 00:45:39;;;;;;;20.77;16.73;;;;;;;;;;341378;29;958;-85
2023/11/13 00:45:49;;;;;;;18.87;16.47;;;;;;;;;;338732;29;1276;-82
2023/11/13 00:46:00;;;;;;;18.98;16.73;;;;;;;;;;337160;29;1195;-83
2023/11/13 00:46:10;;;;;;;19.50;17.40;;;;;;;;;;338665;29;1403;-82
2023/11/13 00:46:21;;;;;;;20.92;18.00;;;;;;;;;;337525;29;785;-83
2023/11/13 00:46:31;;;;;;;20.83;18.20;;;;;;;;;;338671;29;1186;-84
2023/11/13 00:46:42;;;;;;;20.55;18.35;;;;;;;;;;342763;28;1209;-83
2023/11/13 00:46:53;;;;;;;20.38;18.17;;;;;;;;;;340070;29;1401;-82
2023/11/13 00:47:03;;;;;;;20.77;18.30;;;;;;;;;;338324;29;909;-83
2023/11/13 00:47:14;;;;;;;20.73;17.83;;;;;;;;;;338871;29;879;-82
2023/11/13 00:47:24;;;;;;;21.40;17.63;;;;;;;;;;338806;29;855;-84
2023/11/13 00:47:35;;;;;;;21.10;17.47;;;;;;;;;;338753;29;813;-83
2023/11/13 00:47:45;;;;;;;20.92;17.48;;;;;;;;;;337418;29;1309;-85
2023/11/13 00:47:56;;;;;;;20.33;17.87;;;;;;;;;;337422;29;846;-84
2023/11/13 00:48:06;;;;;;;20.48;17.70;;;;;;;;;;337111;29;1381;-82
2023/11/13 00:48:19;;;;;;;21.10;17.70;;;;;;;;;;338754;29;1603;-82
2023/11/13 00:48:32;;;;;;;21.05;18.02;;;;;;;;;;337458;29;1302;-84
2023/11/13 00:48:42;;;;;;;19.95;17.42;;;;;;;;;;337549;29;873;-82
2023/11/13 00:48:53;;;;;;;19.30;17.15;;;;;;;;;;337189;29;931;-83
2023/11/13 00:49:05;;;;;;;20.15;17.20;;;;;;;;;;338374;29;1290;-84
2023/11/13 00:49:15;;;;;;;20.83;17.45;;;;;;;;;;338655;29;1275;-82
2023/11/13 00:49:26;;;;;;;20.55;17.30;;;;;;;;;;338746;29;1398;-82
2023/11/13 00:49:36;;;;;;;21.37;16.97;;;;;;;;;;339945;29;1258;-83
2023/11/13 00:49:47;;;;;;;21.70;17.27;;;;;;;;;;340049;29;1201;-84
2023/11/13 00:49:57;;;;;;;21.07;17.17;;;;;;;;;;338637;29;1436;-84
2023/11/13 00:50:11;;;;;;;19.38;16.90;;;;;;;;;;339723;29;1274;-85
2023/11/13 00:50:21;;;;;;;19.70;17.20;;;;;;;;;;338735;29;1317;-82
2023/11/13 00:50:32;;;;;;;20.42;17.10;;;;;;;;;;337358;29;1210;-83
2023/11/13 00:50:42;;;;;;;20.90;17.03;;;;;;;;;;337445;29;884;-84
2023/11/13 00:50:53;;;;;;;19.42;16.50;;;;;;;;;;338885;29;801;-82
2023/11/13 00:51:04;;;;;;;19.33;16.50;;;;;;;;;;339585;29;1249;-82
2023/11/13 00:51:14;;;;;;;19.23;16.48;;;;;;;;;;338796;29;1454;-84
2023/11/13 00:51:25;;;;;;;19.90;16.57;;;;;;;;;;339988;29;1213;-83
2023/11/13 00:51:35;;;;;;;19.40;16.60;;;;;;;;;;339934;29;915;-85
2023/11/13 00:51:46;;;;;;;20.13;17.10;;;;;;;;;;341492;29;590;-85
2023/11/13 00:51:56;;;;;;;20.52;17.48;;;;;;;;;;341450;29;892;-85
2023/11/13 00:52:07;;;;;;;21.10;17.83;;;;;;;;;;341121;29;903;-82
2023/11/13 00:52:17;;;;;;;20.65;17.45;;;;;;;;;;341442;29;898;-85
2023/11/13 00:52:28;;;;;;;21.10;17.37;;;;;;;;;;341428;29;860;-82
2023/11/13 00:52:39;;;;;;;21.77;17.35;;;;;;;;;;341447;29;793;-85
2023/11/13 00:52:50;;;;;;;21.30;17.23;;;;;;;;;;341481;29;864;-82
2023/11/13 00:53:00;;;;;;;20.25;16.85;;;;;;;;;;338671;29;907;-83
2023/11/13 00:53:11;;;;;;;20.80;17.45;;;;;;;;;;338461;29;828;-82
2023/11/13 00:53:21;;;;;;;20.43;17.57;;;;;;;;;;338826;29;919;-82
2023/11/13 00:53:36;;;;;;;21.75;17.50;;;;;;;;;;338752;29;874;-85
2023/11/13 00:53:47;;;;;;;21.73;16.77;;;;;;;;;;338838;29;876;-82
2023/11/13 00:53:57;;;;;;;20.67;16.97;;;;;;;;;;340037;29;843;-82
2023/11/13 00:54:09;;;;;;;20.50;17.10;;;;;;;;;;338528;29;860;-84
2023/11/13 00:54:20;;;;;;;18.67;16.65;;;;;;;;;;338854;29;856;-82
2023/11/13 00:54:31;;;;;;;18.40;16.42;;;;;;;;;;338821;29;993;-85
2023/11/13 00:54:41;;;;;;;18.53;16.63;;;;;;;;;;338866;29;824;-83
2023/11/13 00:54:52;;;;;;;18.58;16.75;;;;;;;;;;338848;29;852;-83
2023/11/13 00:55:04;;;;;;;19.27;17.15;;;;;;;;;;339730;29;878;-83
2023/11/13 00:55:14;;;;;;;21.15;17.73;;;;;;;;;;340162;29;958;-82
2023/11/13 00:55:25;;;;;;;21.73;17.63;;;;;;;;;;340168;29;793;-84
2023/11/13 00:55:36;;;;;;;20.75;17.55;;;;;;;;;;338662;29;824;-85
2023/11/13 00:55:47;;;;;;;19.17;16.95;;;;;;;;;;340215;29;879;-86
2023/11/13 00:55:58;;;;;;;19.13;16.98;;;;;;;;;;341387;29;863;-83
2023/11/13 00:56:08;;;;;;;19.15;16.55;;;;;;;;;;339767;29;1452;-86
2023/11/13 00:56:18;;;;;;;19.47;16.67;;;;;;;;;;339698;29;844;-83
2023/11/13 00:56:29;;;;;;;19.27;17.10;;;;;;;;;;338834;29;797;-85
2023/11/13 00:56:40;;;;;;;19.03;17.03;;;;;;;;;;338769;29;824;-83
2023/11/13 00:56:50;;;;;;;18.42;16.52;;;;;;;;;;338835;29;864;-83
2023/11/13 00:57:01;;;;;;;18.42;15.93;;;;;;;;;;338757;29;899;-82
2023/11/13 00:57:11;;;;;;;18.60;16.37;;;;;;;;;;338621;29;777;-82
2023/11/13 00:57:22;;;;;;;19.33;17.05;;;;;;;;;;338844;29;936;-82
2023/11/13 00:57:32;;;;;;;19.17;16.97;;;;;;;;;;338601;29;1217;-84
2023/11/13 00:57:43;;;;;;;18.55;15.88;;;;;;;;;;338869;29;909;-82
2023/11/13 00:57:53;;;;;;;18.00;15.43;;;;;;;;;;340145;29;831;-84
2023/11/13 00:58:04;;;;;;;18.40;15.98;;;;;;;;;;339940;29;781;-83
2023/11/13 00:58:16;;;;;;;18.02;15.93;;;;;;;;;;338826;29;825;-82
2023/11/13 00:58:27;;;;;;;18.00;16.02;;;;;;;;;;338807;29;853;-85
2023/11/13 00:58:37;;;;;;;17.97;16.07;;;;;;;;;;338702;29;868;-82
2023/11/13 00:58:48;;;;;;;18.70;16.30;;;;;;;;;;338843;29;801;-82
2023/11/13 00:59:00;;;;;;;18.07;15.97;;;;;;;;;;340055;29;938;-85
2023/11/13 00:59:11;;;;;;;17.82;15.70;;;;;;;;;;339812;29;902;-85
2023/11/13 00:59:21;;;;;;;17.23;15.25;;;;;;;;;;338772;29;1428;-85
2023/11/13 00:59:32;;;;;;;17.77;15.43;;;;;;;;;;338774;29;840;-84
2023/11/13 00:59:42;;;;;;;18.10;15.73;;;;;;;;;;340081;29;825;-82
2023/11/13 01:00:13;;;;;;;18.93;16.30;;;;;;;;;;340079;29;837;-83
2023/11/13 01:00:26;;;;;;;19.17;16.40;;;;;;;;;;338822;29;900;-82
2023/11/13 01:00:37;;;;;;;20.88;16.23;;;;;;;;;;337223;29;899;-83
2023/11/13 01:00:47;;;;;;;20.60;16.53;;;;;;;;;;338636;29;825;-84
2023/11/13 01:00:58;;;;;;;19.77;16.60;;;;;;;;;;340060;29;820;-85
2023/11/13 01:01:13;;;;;;;19.37;16.80;;;;;;;;;;339717;29;1297;-85
2023/11/13 01:01:26;;;;;;;20.02;16.73;;;;;;;;;;338727;29;917;-83
2023/11/13 01:01:36;;;;;;;19.73;16.25;;;;;;;;;;337296;29;1349;-84
2023/11/13 01:01:47;;;;;;;19.30;15.70;;;;;;;;;;337533;29;1072;-83
2023/11/13 01:02:00;;;;;;;17.80;15.43;;;;;;;;;;337421;29;1195;-82
2023/11/13 01:02:11;;;;;;;17.90;15.98;;;;;;;;;;338412;29;1270;-83
2023/11/13 01:02:23;;;;;;;18.20;16.23;;;;;;;;;;338652;29;1284;-82
2023/11/13 01:02:34;;;;;;;18.35;16.30;;;;;;;;;;341266;29;1340;-85
2023/11/13 01:02:44;;;;;;;17.88;15.95;;;;;;;;;;341285;29;1293;-82
2023/11/13 01:02:55;;;;;;;17.67;15.77;;;;;;;;;;338631;29;1206;-85
2023/11/13 01:03:05;;;;;;;17.90;15.35;;;;;;;;;;337423;29;896;-83
2023/11/13 01:03:16;;;;;;;18.43;15.53;;;;;;;;;;338635;29;1304;-85
2023/11/13 01:03:27;;;;;;;18.00;15.52;;;;;;;;;;338753;29;1324;-84
2023/11/13 01:03:38;;;;;;;17.67;15.65;;;;;;;;;;338505;29;1431;-83
2023/11/13 01:03:48;;;;;;;17.45;15.57;;;;;;;;;;341031;29;1308;-83
2023/11/13 01:03:59;;;;;;;17.60;15.63;;;;;;;;;;341433;29;788;-86
2023/11/13 01:04:09;;;;;;;18.27;15.57;;;;;;;;;;339736;29;1354;-82
2023/11/13 01:04:20;;;;;;;18.33;15.83;;;;;;;;;;338718;29;1467;-82
2023/11/13 01:04:30;;;;;;;18.02;15.82;;;;;;;;;;338852;29;836;-83
2023/11/13 01:04:41;;;;;;;17.90;15.83;;;;;;;;;;341258;29;1182;-82
2023/11/13 01:04:52;;;;;;;18.83;16.15;;;;;;;;;;341406;29;1017;-82
2023/11/13 01:05:03;;;;;;;18.63;16.08;;;;;;;;;;340070;29;836;-84
2023/11/13 01:05:14;;;;;;;17.95;15.68;;;;;;;;;;339646;29;1521;-85
2023/11/13 01:05:24;;;;;;;17.70;15.40;;;;;;;;;;340069;29;1915;-85
2023/11/13 01:05:35;;;;;;;17.55;15.00;;;;;;;;;;340020;29;817;-83